createdAt,value
2019-02-03T00:01:15.407Z,22.23
2019-02-03T00:03:44.011Z,20.70
2019-02-03T00:06:12.857Z,21.50
2019-02-03T00:08:41.437Z,22.23
2019-02-03T00:11:09.933Z,22.40
2019-02-03T00:13:38.524Z,22.77
2019-02-03T00:16:07.271Z,24.10
2019-02-03T00:18:35.995Z,23.10
2019-02-03T00:21:44.474Z,22.70
2019-02-03T00:24:13.038Z,22.00
2019-02-03T00:29:36.316Z,24.60
2019-02-03T00:32:44.779Z,25.07
2019-02-03T00:35:53.555Z,23.53
2019-02-03T00:38:25.764Z,24.10
2019-02-03T00:40:52.421Z,24.17
2019-02-03T00:43:20.998Z,22.10
2019-02-03T00:45:49.512Z,25.30
2019-02-03T00:48:18.068Z,24.43
2019-02-03T00:50:46.625Z,23.93
2019-02-03T00:53:15.186Z,25.67
2019-02-03T00:55:43.641Z,24.30
2019-02-03T00:58:12.203Z,24.63
2019-02-03T01:00:40.742Z,24.70
2019-02-03T01:03:09.397Z,24.57
2019-02-03T01:05:37.975Z,22.77
2019-02-03T01:08:46.438Z,24.67
2019-02-03T01:11:15.071Z,24.70
2019-02-03T01:13:43.627Z,25.23
2019-02-03T01:16:13.954Z,24.63
2019-02-03T01:18:42.455Z,24.00
2019-02-03T01:21:11.078Z,26.13
2019-02-03T01:23:39.644Z,25.20
2019-02-03T01:26:08.112Z,26.17
2019-02-03T01:28:36.604Z,25.07
2019-02-03T01:31:05.533Z,25.13
2019-02-03T01:33:34.135Z,25.50
2019-02-03T01:36:02.696Z,26.00
2019-02-03T01:38:31.602Z,27.80
2019-02-03T01:41:00.268Z,27.20
2019-02-03T01:43:43.057Z,25.37
2019-02-03T01:45:59.222Z,26.10
2019-02-03T01:48:27.775Z,28.37
2019-02-03T01:50:56.773Z,28.97
2019-02-03T01:53:25.764Z,32.00
2019-02-03T01:55:54.473Z,30.43
2019-02-03T01:58:24.834Z,30.27
2019-02-03T02:00:53.559Z,31.60
2019-02-03T02:03:22.306Z,34.60
2019-02-03T02:05:50.761Z,32.20
2019-02-03T02:08:19.215Z,30.60
2019-02-03T02:10:47.863Z,31.87
2019-02-03T02:13:16.539Z,33.60
2019-02-03T02:15:45.009Z,32.80
2019-02-03T02:18:13.582Z,33.40
2019-02-03T02:20:42.114Z,33.70
2019-02-03T02:23:10.663Z,36.20
2019-02-03T02:25:39.329Z,34.27
2019-02-03T02:28:08.008Z,35.60
2019-02-03T02:30:36.618Z,37.17
2019-02-03T02:33:05.222Z,34.33
2019-02-03T02:35:33.763Z,33.80
2019-02-03T02:38:07.162Z,32.93
2019-02-03T02:40:32.753Z,34.90
2019-02-03T02:43:01.238Z,35.13
2019-02-03T02:45:29.799Z,36.87
2019-02-03T02:47:58.741Z,35.87
2019-02-03T02:51:07.242Z,35.50
2019-02-03T02:53:35.838Z,35.67
2019-02-03T02:56:04.392Z,34.77
2019-02-03T02:58:32.929Z,34.30
2019-02-03T03:01:01.541Z,34.70
2019-02-03T03:03:31.699Z,34.63
2019-02-03T03:06:00.298Z,34.67
2019-02-03T03:08:28.832Z,35.00
2019-02-03T03:10:57.396Z,34.87
2019-02-03T03:13:25.972Z,35.70
2019-02-03T03:15:54.573Z,33.47
2019-02-03T03:18:23.099Z,34.77
2019-02-03T03:20:51.719Z,36.07
2019-02-03T03:23:20.157Z,36.17
2019-02-03T03:25:48.979Z,34.83
2019-02-03T03:28:17.760Z,33.50
2019-02-03T03:30:46.295Z,34.70
2019-02-03T03:33:14.916Z,33.90
2019-02-03T03:35:43.724Z,34.17
2019-02-03T03:38:12.607Z,33.50
2019-02-03T03:40:41.168Z,34.80
2019-02-03T03:43:09.722Z,33.07
2019-02-03T03:45:38.286Z,35.60
2019-02-03T03:48:06.872Z,33.63
2019-02-03T03:50:35.402Z,32.70
2019-02-03T03:53:04.064Z,34.20
2019-02-03T03:55:32.575Z,34.60
2019-02-03T03:58:01.286Z,34.27
2019-02-03T04:00:29.861Z,33.97
2019-02-03T04:02:58.384Z,31.10
2019-02-03T04:05:27.355Z,34.70
2019-02-03T04:07:55.901Z,32.87
2019-02-03T04:11:04.361Z,32.00
2019-02-03T04:13:32.901Z,33.10
2019-02-03T04:16:01.451Z,34.07
2019-02-03T04:18:30.136Z,32.97
2019-02-03T04:20:58.698Z,35.00
2019-02-03T04:23:27.228Z,34.50
2019-02-03T04:25:55.786Z,33.90
2019-02-03T04:28:24.457Z,33.90
2019-02-03T04:30:52.883Z,35.53
2019-02-03T04:33:21.825Z,36.10
2019-02-03T04:35:50.730Z,33.43
2019-02-03T04:38:19.342Z,31.97
2019-02-03T04:40:47.904Z,32.80
2019-02-03T04:43:16.373Z,35.10
2019-02-03T04:46:04.248Z,31.90
2019-02-03T04:48:33.208Z,33.00
2019-02-03T04:51:01.656Z,33.60
2019-02-03T04:56:05.777Z,32.10
2019-02-03T04:58:34.372Z,31.87
2019-02-03T05:01:03.161Z,31.97
2019-02-03T05:03:31.708Z,32.47
2019-02-03T05:06:00.250Z,32.40
2019-02-03T05:08:28.819Z,31.10
2019-02-03T05:10:57.357Z,31.90
2019-02-03T05:13:25.805Z,30.33
2019-02-03T05:15:56.000Z,30.47
2019-02-03T05:18:24.923Z,32.17
2019-02-03T05:20:53.370Z,31.37
2019-02-03T05:23:21.891Z,31.53
2019-02-03T05:25:50.483Z,31.37
2019-02-03T05:28:19.111Z,31.67
2019-02-03T05:30:49.352Z,35.93
2019-02-03T05:33:17.873Z,34.60
2019-02-03T05:36:05.682Z,34.67
2019-02-03T05:38:34.230Z,34.50
2019-02-03T05:41:03.053Z,32.77
2019-02-03T05:46:28.674Z,37.37
2019-02-03T05:48:57.308Z,33.60
2019-02-03T05:51:26.186Z,34.47
2019-02-03T05:53:54.741Z,35.07
2019-02-03T05:56:23.668Z,36.47
2019-02-03T05:58:52.158Z,32.83
2019-02-03T06:01:20.765Z,34.97
2019-02-03T06:03:50.994Z,35.33
2019-02-03T06:06:19.535Z,32.13
2019-02-03T06:08:48.092Z,34.50
2019-02-03T06:11:16.652Z,34.53
2019-02-03T06:13:45.133Z,37.43
2019-02-03T06:16:13.771Z,33.20
2019-02-03T06:18:44.137Z,35.57
2019-02-03T06:21:12.988Z,34.90
2019-02-03T06:24:02.897Z,32.10
2019-02-03T06:26:32.033Z,35.40
2019-02-03T06:29:02.413Z,32.97
2019-02-03T06:31:32.001Z,33.27
2019-02-03T06:34:01.168Z,33.50
2019-02-03T06:36:30.292Z,34.23
2019-02-03T06:42:07.244Z,35.97
2019-02-03T06:44:35.878Z,36.07
2019-02-03T06:49:44.000Z,35.50
2019-02-03T06:52:12.614Z,35.73
2019-02-03T06:54:41.187Z,34.20
2019-02-03T06:57:09.888Z,36.37
2019-02-03T06:59:50.036Z,36.13
2019-02-03T07:02:09.093Z,34.97
2019-02-03T07:04:37.611Z,37.33
2019-02-03T07:07:06.576Z,35.47
2019-02-03T07:09:36.965Z,33.57
2019-02-03T07:12:05.564Z,35.70
2019-02-03T07:14:35.933Z,36.47
2019-02-03T07:17:04.584Z,36.07
2019-02-03T07:19:33.253Z,36.30
2019-02-03T07:22:01.806Z,33.20
2019-02-03T07:24:30.299Z,36.60
2019-02-03T07:26:58.751Z,33.60
2019-02-03T07:29:29.144Z,32.60
2019-02-03T07:31:57.723Z,34.97
2019-02-03T07:34:26.349Z,35.33
2019-02-03T07:36:54.936Z,36.03
2019-02-03T07:39:23.488Z,37.10
2019-02-03T07:41:52.387Z,33.00
2019-02-03T07:44:21.072Z,35.00
2019-02-03T07:46:49.712Z,34.20
2019-02-03T07:49:18.263Z,35.57
2019-02-03T07:51:46.803Z,33.63
2019-02-03T07:54:15.625Z,31.20
2019-02-03T07:56:44.195Z,32.63
2019-02-03T07:59:13.033Z,34.73
2019-02-03T08:01:41.615Z,35.50
2019-02-03T08:04:10.219Z,31.87
2019-02-03T08:06:38.790Z,32.67
2019-02-03T08:09:47.208Z,33.23
2019-02-03T08:12:15.833Z,34.03
2019-02-03T08:14:44.411Z,31.90
2019-02-03T08:17:12.986Z,32.83
2019-02-03T08:19:41.568Z,33.00
2019-02-03T08:22:50.036Z,33.30
2019-02-03T08:25:58.758Z,32.50
2019-02-03T08:28:27.399Z,30.47
2019-02-03T08:30:55.867Z,29.80
2019-02-03T08:33:24.593Z,33.10
2019-02-03T08:35:53.171Z,31.90
2019-02-03T08:38:21.874Z,32.27
2019-02-03T08:40:50.557Z,31.30
2019-02-03T08:43:19.136Z,30.97
2019-02-03T08:45:47.688Z,31.00
2019-02-03T08:48:16.238Z,30.47
2019-02-03T08:50:44.813Z,30.00
2019-02-03T08:53:13.472Z,29.83
2019-02-03T08:55:41.985Z,32.47
2019-02-03T08:58:10.526Z,30.87
2019-02-03T09:00:39.189Z,30.80
2019-02-03T09:03:08.762Z,30.40
2019-02-03T09:05:38.018Z,29.50
2019-02-03T09:08:06.640Z,29.00
2019-02-03T09:10:35.157Z,31.80
2019-02-03T09:13:03.746Z,29.50
2019-02-03T09:15:32.395Z,29.77
2019-02-03T09:18:02.674Z,30.43
2019-02-03T09:21:11.139Z,27.50
2019-02-03T09:23:39.639Z,30.53
2019-02-03T09:26:08.761Z,29.50
2019-02-03T09:28:38.553Z,27.77
2019-02-03T09:31:07.078Z,29.03
2019-02-03T09:33:35.627Z,28.37
2019-02-03T09:39:12.701Z,28.17
2019-02-03T09:41:41.294Z,28.30
2019-02-03T09:44:29.224Z,27.37
2019-02-03T09:46:57.761Z,26.33
2019-02-03T09:49:26.352Z,26.70
2019-02-03T09:51:54.879Z,27.23
2019-02-03T09:57:10.933Z,26.80
2019-02-03T09:59:39.785Z,26.70
2019-02-03T10:02:08.347Z,25.30
2019-02-03T10:04:36.844Z,24.57
2019-02-03T10:07:05.486Z,24.77
2019-02-03T10:09:35.819Z,25.10
2019-02-03T10:18:25.304Z,23.30
2019-02-03T10:20:53.904Z,25.03
2019-02-03T10:23:22.459Z,22.90
2019-02-03T10:25:51.346Z,23.80
2019-02-03T10:28:19.863Z,25.00
2019-02-03T10:30:48.307Z,25.73
2019-02-03T10:33:16.941Z,24.00
2019-02-03T10:35:47.257Z,23.87
2019-02-03T10:38:15.819Z,23.73
2019-02-03T10:40:44.460Z,24.33
2019-02-03T10:43:13.485Z,24.40
2019-02-03T10:45:42.111Z,25.53
2019-02-03T10:48:10.799Z,24.10
2019-02-03T10:50:41.080Z,24.47
2019-02-03T10:53:49.529Z,25.07
2019-02-03T10:56:18.132Z,23.20
2019-02-03T10:58:46.861Z,25.13
2019-02-03T11:01:15.420Z,26.27
2019-02-03T11:03:43.983Z,26.27
2019-02-03T11:06:12.526Z,24.17
2019-02-03T11:08:41.216Z,25.50
2019-02-03T11:11:09.866Z,26.23
2019-02-03T11:13:40.196Z,25.87
2019-02-03T11:16:08.794Z,25.27
2019-02-03T11:18:37.394Z,24.63
2019-02-03T11:21:06.004Z,25.73
2019-02-03T11:23:34.563Z,24.23
2019-02-03T11:26:03.201Z,25.77
2019-02-03T11:28:31.800Z,24.23
2019-02-03T11:31:00.939Z,25.50
2019-02-03T11:33:29.518Z,26.00
2019-02-03T11:35:58.037Z,25.07
2019-02-03T11:38:26.594Z,25.50
2019-02-03T11:40:55.343Z,25.07
2019-02-03T11:43:23.893Z,27.50
2019-02-03T11:45:52.558Z,25.03
2019-02-03T11:48:21.166Z,25.53
2019-02-03T11:51:29.603Z,26.17
2019-02-03T11:53:58.309Z,24.90
2019-02-03T11:56:26.898Z,25.97
2019-02-03T11:58:55.483Z,24.10
2019-02-03T12:01:24.084Z,26.70
2019-02-03T12:03:52.527Z,23.87
2019-02-03T12:06:21.145Z,25.70
2019-02-03T12:08:49.702Z,24.87
2019-02-03T12:11:18.246Z,23.27
2019-02-03T12:13:46.934Z,23.67
2019-02-03T12:16:15.477Z,25.93
2019-02-03T12:18:44.292Z,23.50
2019-02-03T12:21:12.826Z,24.60
2019-02-03T12:23:41.381Z,24.57
2019-02-03T12:26:10.409Z,22.73
2019-02-03T12:28:39.040Z,24.73
2019-02-03T12:31:07.690Z,25.37
2019-02-03T12:33:36.455Z,23.07
2019-02-03T12:36:06.842Z,22.97
2019-02-03T12:38:35.528Z,24.00
2019-02-03T12:41:04.159Z,25.00
2019-02-03T12:43:32.541Z,24.13
2019-02-03T12:46:01.191Z,25.13
2019-02-03T12:48:29.721Z,23.50
2019-02-03T12:50:58.264Z,22.60
2019-02-03T12:53:26.936Z,25.37
2019-02-03T12:55:55.554Z,24.90
2019-02-03T12:58:24.186Z,24.50
2019-02-03T13:00:52.805Z,23.40
2019-02-03T13:03:21.367Z,23.87
2019-02-03T13:05:50.203Z,24.10
2019-02-03T13:08:18.812Z,23.70
2019-02-03T13:10:47.644Z,23.33
2019-02-03T13:13:16.189Z,21.77
2019-02-03T13:18:40.724Z,24.43
2019-02-03T13:21:09.430Z,24.07
2019-02-03T13:23:45.044Z,22.33
2019-02-03T13:26:08.356Z,22.93
2019-02-03T13:28:37.038Z,25.73
2019-02-03T13:54:24.434Z,22.57
2019-02-03T13:59:24.098Z,23.93
2019-02-03T14:02:56.049Z,20.60
2019-02-03T14:08:01.789Z,22.17
2019-02-03T14:13:39.075Z,20.70
2019-02-03T14:16:08.093Z,22.80
2019-02-03T14:24:37.269Z,21.30
2019-02-03T14:27:46.103Z,21.37
2019-02-03T14:33:12.854Z,20.10
2019-02-03T14:38:37.071Z,21.03
2019-02-03T14:41:06.490Z,21.20
2019-02-03T14:46:12.520Z,20.20
2019-02-03T14:48:40.634Z,20.60
2019-02-03T14:51:09.307Z,21.00
2019-02-03T14:53:38.167Z,20.60
2019-02-03T14:56:06.756Z,18.70
2019-02-03T14:58:37.394Z,19.50
2019-02-03T15:01:45.832Z,19.10
2019-02-03T15:04:14.608Z,18.40
2019-02-03T15:06:43.158Z,18.70
2019-02-03T15:09:51.901Z,19.30
2019-02-03T15:12:20.396Z,18.53
2019-02-03T15:14:49.377Z,18.50
2019-02-03T15:17:18.063Z,19.33
2019-02-03T15:19:46.609Z,19.73
2019-02-03T15:22:15.160Z,20.73
2019-02-03T15:24:44.736Z,18.00
2019-02-03T15:27:13.543Z,18.97
2019-02-03T15:29:42.270Z,18.37
2019-02-03T15:32:11.319Z,18.80
2019-02-03T15:34:39.774Z,17.70
2019-02-03T15:37:08.331Z,18.67
2019-02-03T15:39:37.475Z,18.43
2019-02-03T15:42:06.041Z,17.93
2019-02-03T15:44:34.605Z,17.67
2019-02-03T15:47:03.192Z,18.63
2019-02-03T15:49:31.716Z,19.10
2019-02-03T15:52:00.217Z,19.40
2019-02-03T15:54:28.919Z,17.77
2019-02-03T15:56:57.471Z,17.80
2019-02-03T15:59:26.026Z,18.13
2019-02-03T16:01:54.615Z,17.20
2019-02-03T16:04:35.179Z,18.70
2019-02-03T16:06:53.475Z,17.60
2019-02-03T16:09:22.171Z,17.87
2019-02-03T16:11:50.851Z,17.90
2019-02-03T16:14:19.735Z,18.40
2019-02-03T16:16:48.267Z,17.90
2019-02-03T16:19:16.758Z,17.63
2019-02-03T16:21:45.157Z,16.00
2019-02-03T16:24:13.769Z,17.80
2019-02-03T16:26:42.484Z,17.50
2019-02-03T16:29:11.152Z,16.30
2019-02-03T16:31:39.788Z,17.03
2019-02-03T16:34:10.089Z,16.93
2019-02-03T16:36:39.130Z,16.90
2019-02-03T16:42:01.360Z,17.33
2019-02-03T16:44:29.841Z,17.30
2019-02-03T16:46:58.731Z,17.53
2019-02-03T16:49:27.530Z,17.10
2019-02-03T16:51:56.433Z,17.77
2019-02-03T16:54:25.608Z,18.50
2019-02-03T16:56:54.166Z,19.80
2019-02-03T16:59:22.698Z,18.93
2019-02-03T17:01:51.316Z,17.27
2019-02-03T17:04:19.897Z,17.13
2019-02-03T17:06:49.090Z,17.70
2019-02-03T17:09:17.681Z,17.17
2019-02-03T17:11:46.346Z,16.67
2019-02-03T17:14:14.842Z,17.40
2019-02-03T17:16:43.812Z,16.93
2019-02-03T17:19:12.326Z,16.93
2019-02-03T17:21:40.956Z,15.93
2019-02-03T17:24:09.467Z,17.97
2019-02-03T17:27:17.941Z,17.20
2019-02-03T17:29:46.593Z,17.67
2019-02-03T17:32:15.042Z,17.63
2019-02-03T17:34:43.836Z,16.90
2019-02-03T17:37:12.450Z,16.67
2019-02-03T17:39:43.070Z,17.40
2019-02-03T17:42:11.623Z,18.90
2019-02-03T17:47:27.577Z,17.50
2019-02-03T17:49:56.221Z,18.90
2019-02-03T17:52:24.802Z,17.77
2019-02-03T17:55:33.296Z,17.47
2019-02-03T17:58:02.400Z,17.80
2019-02-03T18:01:11.026Z,19.00
2019-02-03T18:03:39.878Z,17.83
2019-02-03T18:06:08.583Z,18.90
2019-02-03T18:08:37.099Z,18.00
2019-02-03T18:11:45.617Z,17.13
2019-02-03T18:14:24.069Z,17.03
2019-02-03T18:16:44.563Z,18.63
2019-02-03T18:19:13.354Z,17.53
2019-02-03T18:21:41.964Z,19.30
2019-02-03T18:24:10.382Z,18.30
2019-02-03T18:27:21.426Z,18.60
2019-02-03T18:29:49.919Z,18.50
2019-02-03T18:32:18.817Z,17.03
2019-02-03T18:34:47.243Z,19.07
2019-02-03T18:37:15.820Z,19.07
2019-02-03T18:39:44.303Z,19.20
2019-02-03T18:42:12.772Z,18.87
2019-02-03T18:44:41.347Z,18.20
2019-02-03T18:47:11.633Z,17.93
2019-02-03T18:49:40.407Z,18.40
2019-02-03T18:52:08.934Z,18.23
2019-02-03T18:54:37.488Z,17.30
2019-02-03T18:57:06.254Z,18.93
2019-02-03T18:59:34.769Z,17.03
2019-02-03T19:04:55.835Z,17.80
2019-02-03T19:07:24.396Z,17.77
2019-02-03T19:09:52.893Z,16.80
2019-02-03T19:12:21.465Z,16.93
2019-02-03T19:14:50.328Z,17.87
2019-02-03T19:17:18.971Z,16.73
2019-02-03T19:19:47.907Z,17.63
2019-02-03T19:22:16.497Z,17.93
2019-02-03T19:24:45.100Z,15.97
2019-02-03T19:27:13.782Z,16.30
2019-02-03T19:29:42.342Z,16.40
2019-02-03T19:32:11.332Z,17.80
2019-02-03T19:34:39.868Z,17.40
2019-02-03T19:37:08.481Z,16.33
2019-02-03T19:39:37.026Z,16.60
2019-02-03T19:42:05.655Z,15.83
2019-02-03T19:44:34.210Z,16.77
2019-02-03T19:47:02.759Z,16.70
2019-02-03T19:49:31.345Z,15.70
2019-02-03T19:51:59.869Z,15.30
2019-02-03T19:54:28.804Z,14.60
2019-02-03T19:57:04.640Z,15.37
2019-02-03T19:59:33.212Z,16.27
2019-02-03T20:02:01.959Z,14.57
2019-02-03T20:04:30.355Z,15.90
2019-02-03T20:06:58.917Z,15.00
2019-02-03T20:09:29.219Z,15.43
2019-02-03T20:11:57.734Z,14.33
2019-02-03T20:14:26.598Z,14.20
2019-02-03T20:16:55.160Z,14.30
2019-02-03T20:19:23.638Z,14.23
2019-02-03T20:21:52.266Z,13.80
2019-02-03T20:24:22.521Z,13.00
2019-02-03T20:26:51.159Z,13.53
2019-02-03T20:29:19.722Z,13.87
2019-02-03T20:31:48.296Z,13.10
2019-02-03T20:34:16.932Z,13.10
2019-02-03T20:36:45.541Z,14.10
2019-02-03T20:39:15.893Z,13.23
2019-02-03T20:41:44.477Z,13.23
2019-02-03T20:44:13.105Z,13.43
2019-02-03T20:46:42.303Z,12.90
2019-02-03T20:49:10.773Z,12.93
2019-02-03T20:51:39.227Z,13.43
2019-02-03T20:56:47.360Z,12.07
2019-02-03T20:59:15.761Z,13.23
2019-02-03T21:01:44.279Z,12.57
2019-02-03T21:04:12.924Z,12.50
2019-02-03T21:06:43.233Z,12.00
2019-02-03T21:09:11.907Z,12.90
2019-02-03T21:11:40.629Z,13.07
2019-02-03T21:14:09.101Z,12.73
2019-02-03T21:19:26.811Z,12.90
2019-02-03T21:21:55.336Z,13.83
2019-02-03T21:24:24.455Z,12.80
2019-02-03T21:26:53.035Z,12.20
2019-02-03T21:29:21.553Z,12.07
2019-02-03T21:31:51.814Z,12.00
2019-02-03T21:34:20.348Z,12.17
2019-02-03T21:36:48.970Z,12.03
2019-02-03T21:39:17.496Z,12.80
2019-02-03T21:41:46.058Z,12.23
2019-02-03T21:44:14.598Z,12.50
2019-02-03T21:46:43.302Z,12.17
2019-02-03T21:49:11.852Z,12.60
2019-02-03T21:51:40.432Z,11.90
2019-02-03T21:54:09.194Z,12.00
2019-02-03T21:56:37.852Z,12.60
2019-02-03T21:59:06.310Z,11.83
2019-02-03T22:01:35.134Z,12.40
2019-02-03T22:04:03.691Z,12.17
2019-02-03T22:06:32.157Z,11.53
2019-02-03T22:09:00.723Z,11.60
2019-02-03T22:11:29.306Z,11.40
2019-02-03T22:13:58.051Z,11.30
2019-02-03T22:16:28.572Z,11.80
2019-02-03T22:18:57.210Z,11.80
2019-02-03T22:21:25.757Z,11.50
2019-02-03T22:23:54.434Z,11.63
2019-02-03T22:26:23.034Z,11.57
2019-02-03T22:28:52.132Z,11.63
2019-02-03T22:31:20.707Z,12.90
2019-02-03T22:33:49.447Z,11.77
2019-02-03T22:36:17.997Z,12.10
2019-02-03T22:38:46.596Z,11.90
2019-02-03T22:41:15.307Z,11.40
2019-02-03T22:43:43.867Z,11.53
2019-02-03T22:46:12.514Z,11.73
2019-02-03T22:48:41.163Z,11.90
2019-02-03T22:51:09.998Z,11.97
2019-02-03T22:53:38.573Z,11.30
2019-02-03T22:56:07.311Z,11.67
2019-02-03T22:58:35.826Z,11.20
2019-02-03T23:01:44.280Z,11.40
2019-02-03T23:04:12.860Z,12.07
2019-02-03T23:06:43.210Z,11.70
2019-02-03T23:12:39.130Z,11.53
2019-02-03T23:15:47.600Z,11.73
2019-02-03T23:18:16.104Z,11.27
2019-02-03T23:20:44.631Z,13.13
2019-02-03T23:23:13.249Z,12.10
2019-02-03T23:25:41.834Z,12.70
2019-02-03T23:28:10.364Z,11.33
2019-02-03T23:30:40.657Z,11.93
2019-02-03T23:33:09.351Z,11.30
2019-02-03T23:35:37.871Z,11.77
2019-02-03T23:38:06.485Z,12.03
2019-02-03T23:40:35.038Z,12.03
2019-02-03T23:43:03.570Z,11.83
2019-02-03T23:45:33.863Z,11.43
2019-02-03T23:48:02.245Z,11.60
2019-02-03T23:50:30.887Z,11.30
2019-02-03T23:53:39.346Z,11.80
2019-02-03T23:56:07.905Z,12.20
2019-02-03T23:58:36.519Z,10.83
